createdAt,value
2023-04-04T00:01:16.889Z,6.10
2023-04-04T00:03:45.349Z,6.00
2023-04-04T00:06:13.736Z,6.00
2023-04-04T00:08:41.993Z,6.00
2023-04-04T00:11:10.387Z,6.00
2023-04-04T00:13:40.345Z,6.00
2023-04-04T00:16:09.115Z,5.90
2023-04-04T00:18:37.410Z,5.90
2023-04-04T00:21:06.008Z,5.90
2023-04-04T00:23:34.313Z,5.90
2023-04-04T00:26:02.632Z,5.80
2023-04-04T00:28:31.210Z,5.90
2023-04-04T00:31:02.239Z,5.80
2023-04-04T00:33:30.603Z,5.80
2023-04-04T00:35:59.726Z,5.70
2023-04-04T00:38:29.640Z,5.70
2023-04-04T00:41:00.603Z,5.70
2023-04-04T00:43:29.016Z,5.70
2023-04-04T00:45:58.118Z,5.70
2023-04-04T00:48:28.045Z,5.70
2023-04-04T00:50:56.919Z,5.70
2023-04-04T00:53:25.209Z,5.70
2023-04-04T00:55:53.726Z,5.70
2023-04-04T00:58:22.598Z,5.70
2023-04-04T01:00:52.046Z,5.70
2023-04-04T01:03:20.463Z,5.70
2023-04-04T01:05:50.245Z,5.70
2023-04-04T01:08:24.318Z,5.70
2023-04-04T01:10:54.067Z,5.70
2023-04-04T01:13:23.467Z,5.60
2023-04-04T01:15:54.091Z,5.60
2023-04-04T01:18:25.100Z,5.60
2023-04-04T01:21:00.130Z,5.60
2023-04-04T01:23:37.387Z,5.60
2023-04-04T01:26:09.539Z,5.60
2023-04-04T01:28:38.238Z,5.60
2023-04-04T01:31:13.836Z,5.60
2023-04-04T01:33:47.022Z,5.50
2023-04-04T01:36:29.993Z,5.50
2023-04-04T01:39:03.174Z,5.50
2023-04-04T01:41:35.129Z,5.50
2023-04-04T01:44:04.994Z,5.50
2023-04-04T01:46:33.817Z,5.50
2023-04-04T01:49:02.303Z,5.50
2023-04-04T01:51:35.138Z,5.50
2023-04-04T01:54:03.622Z,5.50
2023-04-04T01:56:34.042Z,5.40
2023-04-04T01:59:02.530Z,5.40
2023-04-04T02:01:31.036Z,5.40
2023-04-04T02:03:59.376Z,5.30
2023-04-04T02:06:28.194Z,5.30
2023-04-04T02:08:57.244Z,5.30
2023-04-04T02:11:27.122Z,5.30
2023-04-04T02:13:57.251Z,5.30
2023-04-04T02:16:28.547Z,5.30
2023-04-04T02:18:57.101Z,5.30
2023-04-04T02:21:27.239Z,5.20
2023-04-04T02:23:55.570Z,5.20
2023-04-04T02:26:23.967Z,5.20
2023-04-04T02:28:52.250Z,5.10
2023-04-04T02:31:22.053Z,5.10
2023-04-04T02:33:50.327Z,5.10
2023-04-04T02:36:21.216Z,5.10
2023-04-04T02:38:51.832Z,5.00
2023-04-04T02:41:21.882Z,5.00
2023-04-04T02:43:50.208Z,5.00
2023-04-04T02:46:22.158Z,4.90
2023-04-04T02:48:57.424Z,4.90
2023-04-04T02:51:26.459Z,4.80
2023-04-04T02:53:58.873Z,4.80
2023-04-04T02:56:33.629Z,4.80
2023-04-04T02:59:02.194Z,4.80
2023-04-04T03:01:32.423Z,4.70
2023-04-04T03:04:04.576Z,4.70
2023-04-04T03:06:34.610Z,4.70
2023-04-04T03:09:04.950Z,4.70
2023-04-04T03:11:33.525Z,4.70
2023-04-04T03:14:02.349Z,4.60
2023-04-04T03:16:37.625Z,4.60
2023-04-04T03:19:06.297Z,4.60
2023-04-04T03:21:34.577Z,4.50
2023-04-04T03:24:03.251Z,4.50
2023-04-04T03:26:31.500Z,4.50
2023-04-04T03:28:59.975Z,4.50
2023-04-04T03:31:28.493Z,4.40
2023-04-04T03:34:02.583Z,4.40
2023-04-04T03:36:31.373Z,4.40
2023-04-04T03:38:59.697Z,4.30
2023-04-04T03:41:28.059Z,4.30
2023-04-04T03:43:58.719Z,4.30
2023-04-04T03:46:27.393Z,4.20
2023-04-04T03:48:57.734Z,4.20
2023-04-04T03:51:26.308Z,4.20
2023-04-04T03:53:55.177Z,4.10
2023-04-04T03:56:24.475Z,4.10
2023-04-04T03:58:55.853Z,4.10
2023-04-04T04:01:24.563Z,4.10
2023-04-04T04:03:53.251Z,4.00
2023-04-04T04:06:23.086Z,4.00
2023-04-04T04:08:51.518Z,3.90
2023-04-04T04:11:19.902Z,3.90
2023-04-04T04:13:48.191Z,3.90
2023-04-04T04:16:16.583Z,3.90
2023-04-04T04:18:45.321Z,3.90
2023-04-04T04:21:19.396Z,3.80
2023-04-04T04:23:49.167Z,3.90
2023-04-04T04:26:17.395Z,3.80
2023-04-04T04:28:48.198Z,3.90
2023-04-04T04:31:20.093Z,3.80
2023-04-04T04:33:51.623Z,3.80
2023-04-04T04:36:22.916Z,3.80
2023-04-04T04:39:00.175Z,3.80
2023-04-04T04:41:31.633Z,3.80
2023-04-04T04:44:02.222Z,3.70
2023-04-04T04:46:31.784Z,3.70
2023-04-04T04:49:01.349Z,3.70
2023-04-04T04:51:32.120Z,3.70
2023-04-04T04:54:02.479Z,3.70
2023-04-04T04:56:32.252Z,3.60
2023-04-04T04:59:09.224Z,3.60
2023-04-04T05:01:39.616Z,3.60
2023-04-04T05:04:08.018Z,3.50
2023-04-04T05:06:45.815Z,3.60
2023-04-04T05:09:16.294Z,3.50
2023-04-04T05:12:39.730Z,3.50
2023-04-04T05:15:29.238Z,3.40
2023-04-04T05:17:58.193Z,3.40
2023-04-04T05:20:27.220Z,3.30
2023-04-04T05:22:56.019Z,3.30
2023-04-04T05:25:35.283Z,3.30
2023-04-04T05:28:03.965Z,3.20
2023-04-04T05:30:33.915Z,3.20
2023-04-04T05:33:12.164Z,3.20
2023-04-04T05:35:45.776Z,3.20
2023-04-04T05:38:16.186Z,3.10
2023-04-04T05:40:47.933Z,3.10
2023-04-04T05:43:16.725Z,3.10
2023-04-04T05:51:23.472Z,3.10
2023-04-04T05:59:01.251Z,3.00
2023-04-04T06:08:53.105Z,3.00
2023-04-04T06:13:09.947Z,3.00
2023-04-04T06:17:01.799Z,3.10
2023-04-04T06:26:22.103Z,3.20
2023-04-04T06:32:58.628Z,3.20
2023-04-04T06:36:14.822Z,3.30
2023-04-04T06:39:15.847Z,3.30
2023-04-04T06:50:20.111Z,3.50
2023-04-04T06:57:18.780Z,3.60
2023-04-04T07:08:55.052Z,3.80
2023-04-04T07:15:00.399Z,4.10
2023-04-04T07:25:52.708Z,4.70
2023-04-04T07:28:38.640Z,5.40
2023-04-04T07:31:09.012Z,5.90
2023-04-04T07:39:19.837Z,7.40
2023-04-04T07:42:38.242Z,7.90
2023-04-04T07:45:30.445Z,8.40
2023-04-04T07:51:41.854Z,9.60
2023-04-04T07:54:34.074Z,10.40
2023-04-04T07:57:35.194Z,10.80
2023-04-04T08:00:30.609Z,11.20
2023-04-04T08:03:06.539Z,11.70
2023-04-04T08:05:48.005Z,12.20
2023-04-04T08:08:24.573Z,12.90
2023-04-04T08:11:02.265Z,13.40
2023-04-04T08:16:17.963Z,14.60
2023-04-04T08:18:49.716Z,15.00
2023-04-04T08:21:19.673Z,15.10
2023-04-04T08:23:48.737Z,15.60
2023-04-04T08:26:43.598Z,16.00
2023-04-04T08:29:31.016Z,16.50
2023-04-04T08:32:04.612Z,16.90
2023-04-04T08:34:34.861Z,16.90
2023-04-04T08:37:03.806Z,17.10
2023-04-04T08:39:32.944Z,17.30
2023-04-04T08:42:06.735Z,17.70
2023-04-04T08:44:36.784Z,18.10
2023-04-04T08:47:09.449Z,18.60
2023-04-04T08:49:40.767Z,19.10
2023-04-04T08:52:13.007Z,19.50
2023-04-04T08:55:10.445Z,19.60
2023-04-04T08:57:43.993Z,19.40
2023-04-04T09:00:18.175Z,19.40
2023-04-04T09:02:59.757Z,19.50
2023-04-04T09:05:38.306Z,19.60
2023-04-04T09:08:18.744Z,20.00
2023-04-04T09:10:48.380Z,20.40
2023-04-04T09:13:17.873Z,20.60
2023-04-04T09:15:52.622Z,20.90
2023-04-04T09:18:28.729Z,21.10
2023-04-04T09:21:01.201Z,21.00
2023-04-04T09:23:33.422Z,21.50
2023-04-04T09:26:05.342Z,21.90
2023-04-04T09:28:35.424Z,22.30
2023-04-04T09:31:12.804Z,22.40
2023-04-04T09:33:46.697Z,22.60
2023-04-04T09:36:20.695Z,22.90
2023-04-04T09:38:50.061Z,23.20
2023-04-04T09:41:24.740Z,23.30
2023-04-04T09:43:59.280Z,23.50
2023-04-04T09:46:40.266Z,23.80
2023-04-04T09:49:22.543Z,24.20
2023-04-04T09:51:54.348Z,24.30
2023-04-04T09:54:29.792Z,24.10
2023-04-04T09:57:02.389Z,24.40
2023-04-04T09:59:31.619Z,24.20
2023-04-04T10:02:05.586Z,24.40
2023-04-04T10:04:38.975Z,24.50
2023-04-04T10:07:15.764Z,24.60
2023-04-04T10:09:52.886Z,24.10
2023-04-04T10:12:24.337Z,24.10
2023-04-04T10:15:00.420Z,24.30
2023-04-04T10:17:34.131Z,24.50
2023-04-04T10:20:15.549Z,24.50
2023-04-04T10:22:51.926Z,24.50
2023-04-04T10:25:24.201Z,24.40
2023-04-04T10:27:55.838Z,24.80
2023-04-04T10:30:24.820Z,24.30
2023-04-04T10:33:01.345Z,24.40
2023-04-04T10:35:36.098Z,23.70
2023-04-04T10:38:07.130Z,23.60
2023-04-04T10:40:40.079Z,23.50
2023-04-04T10:43:09.376Z,23.40
2023-04-04T10:45:42.604Z,23.30
2023-04-04T10:48:12.072Z,23.50
2023-04-04T10:50:54.972Z,23.70
2023-04-04T10:53:25.416Z,23.50
2023-04-04T10:55:57.964Z,23.10
2023-04-04T10:58:27.460Z,22.70
2023-04-04T11:00:58.158Z,22.70
2023-04-04T11:03:27.047Z,22.80
2023-04-04T11:06:02.121Z,22.80
2023-04-04T11:08:30.904Z,23.10
2023-04-04T11:11:05.062Z,23.10
2023-04-04T11:13:41.797Z,22.90
2023-04-04T11:16:16.035Z,23.00
2023-04-04T11:18:49.255Z,23.20
2023-04-04T11:21:25.223Z,23.10
2023-04-04T11:24:17.963Z,23.10
2023-04-04T11:26:47.512Z,23.00
2023-04-04T11:29:47.501Z,23.20
2023-04-04T11:32:50.108Z,23.40
2023-04-04T11:38:23.848Z,22.70
2023-04-04T11:40:56.680Z,22.60
2023-04-04T11:43:27.241Z,22.60
2023-04-04T11:46:06.379Z,22.10
2023-04-04T11:48:35.258Z,21.90
2023-04-04T11:51:05.179Z,21.90
2023-04-04T11:53:35.784Z,22.20
2023-04-04T11:56:04.643Z,22.50
2023-04-04T11:58:37.184Z,22.60
2023-04-04T12:01:06.830Z,22.20
2023-04-04T12:03:37.046Z,22.40
2023-04-04T12:06:06.217Z,22.10
2023-04-04T12:08:36.694Z,21.70
2023-04-04T12:11:10.754Z,21.50
2023-04-04T12:13:45.003Z,21.30
2023-04-04T12:16:13.982Z,20.90
2023-04-04T12:18:42.758Z,20.90
2023-04-04T12:21:12.420Z,20.60
2023-04-04T12:23:42.908Z,20.50
2023-04-04T12:26:11.914Z,20.30
2023-04-04T12:28:41.328Z,20.40
2023-04-04T12:31:12.857Z,20.40
2023-04-04T13:18:37.489Z,17.40
2023-04-04T13:21:08.000Z,17.20
2023-04-04T13:23:37.736Z,17.20
2023-04-04T13:26:08.037Z,17.20
2023-04-04T13:28:37.245Z,17.20
2023-04-04T13:31:06.564Z,17.30
2023-04-04T13:33:36.900Z,17.10
2023-04-04T13:36:06.098Z,16.80
2023-04-04T13:38:34.752Z,16.90
2023-04-04T13:42:19.028Z,16.90
2023-04-04T13:44:50.627Z,16.80
2023-04-04T13:47:22.811Z,16.70
2023-04-04T13:49:52.728Z,16.70
2023-04-04T13:52:22.270Z,16.60
2023-04-04T13:54:51.053Z,16.60
2023-04-04T13:57:19.855Z,16.50
2023-04-04T13:59:49.040Z,16.50
2023-04-04T14:02:17.588Z,16.50
2023-04-04T14:04:49.415Z,16.50
2023-04-04T14:07:20.395Z,16.50
2023-04-04T14:09:48.824Z,16.40
2023-04-04T14:12:17.193Z,16.40
2023-04-04T14:14:45.732Z,16.30
2023-04-04T14:17:14.175Z,16.10
2023-04-04T14:19:44.499Z,16.00
2023-04-04T14:22:13.003Z,16.00
2023-04-04T14:24:42.746Z,16.00
2023-04-04T14:27:11.165Z,16.00
2023-04-04T14:29:52.268Z,15.90
2023-04-04T14:32:20.762Z,15.80
2023-04-04T14:34:49.497Z,15.80
2023-04-04T14:38:21.853Z,15.70
2023-04-04T14:41:00.376Z,15.70
2023-04-04T14:43:29.098Z,15.50
2023-04-04T14:45:57.818Z,15.30
2023-04-04T14:48:28.708Z,15.30
2023-04-04T14:50:57.397Z,15.30
2023-04-04T14:53:28.260Z,15.20
2023-04-04T14:55:58.654Z,15.30
2023-04-04T14:58:27.552Z,15.30
2023-04-04T15:00:56.812Z,15.30
2023-04-04T15:03:26.131Z,15.30
2023-04-04T15:26:27.603Z,14.70
2023-04-04T15:28:56.134Z,14.70
2023-04-04T15:31:26.348Z,14.70
2023-04-04T15:33:59.376Z,14.80
2023-04-04T15:55:22.192Z,14.50
2023-04-04T15:57:57.665Z,14.50
2023-04-04T16:00:50.556Z,14.50
2023-04-04T16:03:48.843Z,14.40
2023-04-04T16:07:05.448Z,14.40
2023-04-04T16:09:47.468Z,14.40
2023-04-04T16:12:21.154Z,14.30
2023-04-04T16:15:31.438Z,14.30
2023-04-04T16:46:11.186Z,14.20
2023-04-04T16:48:40.063Z,14.20
2023-04-04T16:51:10.179Z,14.10
2023-04-04T16:53:41.605Z,14.10
2023-04-04T16:56:11.104Z,14.00
2023-04-04T16:58:40.111Z,14.00
2023-04-04T17:01:10.380Z,14.00
2023-04-04T17:03:39.181Z,14.00
2023-04-04T17:06:08.521Z,13.90
2023-04-04T17:08:38.027Z,13.80
2023-04-04T17:11:13.221Z,13.70
2023-04-04T17:13:47.624Z,13.70
2023-04-04T17:16:23.575Z,13.60
2023-04-04T17:18:52.539Z,13.60
2023-04-04T17:21:26.630Z,13.50
2023-04-04T17:23:56.129Z,13.50
2023-04-04T17:26:27.685Z,13.50
2023-04-04T17:29:00.525Z,13.40
2023-04-04T17:32:29.752Z,13.30
2023-04-04T17:35:18.463Z,13.30
2023-04-04T17:38:08.081Z,13.20
2023-04-04T19:31:34.486Z,10.30
2023-04-04T19:34:09.771Z,10.20
2023-04-04T19:36:39.007Z,10.10
2023-04-04T19:39:10.239Z,10.10
2023-04-04T19:41:42.148Z,10.00
2023-04-04T19:44:19.431Z,9.90
2023-04-04T19:47:01.129Z,9.90
2023-04-04T19:49:30.777Z,9.80
2023-04-04T19:52:00.406Z,9.80
2023-04-04T19:54:58.309Z,9.70
2023-04-04T19:57:27.473Z,9.70
2023-04-04T20:00:01.964Z,9.60
2023-04-04T20:02:51.228Z,9.50
2023-04-04T20:06:06.492Z,9.40
2023-04-04T20:08:44.289Z,9.40
2023-04-04T20:11:18.448Z,9.30
2023-04-04T20:13:54.019Z,9.30
2023-04-04T20:16:22.537Z,9.20
2023-04-04T20:18:53.462Z,9.10
2023-04-04T20:21:23.559Z,9.10
2023-04-04T20:23:53.813Z,9.10
2023-04-04T20:26:51.133Z,9.00
2023-04-04T20:29:22.630Z,9.00
2023-04-04T20:31:53.415Z,9.00
2023-04-04T20:34:38.897Z,8.90
2023-04-04T20:37:10.349Z,8.90
2023-04-04T20:39:41.853Z,8.90
2023-04-04T20:42:20.155Z,8.90
2023-04-04T20:44:48.641Z,8.80
2023-04-04T20:47:38.241Z,8.70
2023-04-04T20:50:42.557Z,8.70
2023-04-04T20:53:20.751Z,8.60
2023-04-04T20:55:50.717Z,8.60
2023-04-04T20:58:30.352Z,8.50
2023-04-04T21:00:59.943Z,8.40
2023-04-04T21:03:35.502Z,8.40
2023-04-04T21:06:12.706Z,8.40
2023-04-04T21:08:46.779Z,8.40
2023-04-04T21:11:19.382Z,8.30
2023-04-04T21:13:48.491Z,8.30
2023-04-04T21:16:18.362Z,8.20
2023-04-04T21:18:47.218Z,8.20
2023-04-04T21:21:18.871Z,8.10
2023-04-04T21:23:50.593Z,8.10
2023-04-04T21:26:34.029Z,8.10
2023-04-04T21:29:04.773Z,8.00
2023-04-04T21:31:38.871Z,8.00
2023-04-04T21:34:12.879Z,8.00
2023-04-04T21:36:43.083Z,8.00
2023-04-04T21:39:13.962Z,8.00
2023-04-04T21:41:43.990Z,7.90
2023-04-04T21:44:12.407Z,7.90
2023-04-04T21:46:41.728Z,7.90
2023-04-04T21:49:10.984Z,7.90
2023-04-04T21:51:39.371Z,7.90
2023-04-04T21:54:09.150Z,7.90
2023-04-04T21:56:38.539Z,7.80
2023-04-04T21:59:09.180Z,7.80
2023-04-04T22:01:38.707Z,7.80
2023-04-04T22:04:07.187Z,7.70
2023-04-04T22:06:36.333Z,7.70
2023-04-04T22:09:05.632Z,7.70
2023-04-04T22:11:38.953Z,7.60
2023-04-04T22:14:08.091Z,7.60
2023-04-04T22:16:39.779Z,7.70
2023-04-04T22:19:11.030Z,7.60
2023-04-04T22:21:47.890Z,7.60
2023-04-04T22:24:18.315Z,7.60
2023-04-04T22:26:50.509Z,7.60
2023-04-04T22:29:18.875Z,7.50
2023-04-04T22:31:47.276Z,7.50
2023-04-04T22:34:15.795Z,7.40
2023-04-04T22:36:47.035Z,7.40
2023-04-04T22:39:16.490Z,7.30
2023-04-04T22:41:45.502Z,7.30
2023-04-04T22:44:15.502Z,7.20
2023-04-04T22:46:43.768Z,7.20
2023-04-04T22:49:13.323Z,7.10
2023-04-04T22:51:45.721Z,7.10
2023-04-04T22:54:15.937Z,7.00
2023-04-04T22:56:44.697Z,7.00
2023-04-04T22:59:14.534Z,6.90
2023-04-04T23:01:43.066Z,6.90
2023-04-04T23:04:11.724Z,6.80
2023-04-04T23:06:40.049Z,6.80
2023-04-04T23:09:08.888Z,6.80
2023-04-04T23:11:38.517Z,6.80
2023-04-04T23:14:09.282Z,6.70
2023-04-04T23:16:39.936Z,6.70
2023-04-04T23:19:08.327Z,6.60
2023-04-04T23:21:38.128Z,6.60
2023-04-04T23:24:08.247Z,6.60
2023-04-04T23:26:36.613Z,6.50
2023-04-04T23:29:05.734Z,6.50
2023-04-04T23:31:34.197Z,6.50
2023-04-04T23:34:03.877Z,6.40
2023-04-04T23:36:32.386Z,6.40
2023-04-04T23:39:00.687Z,6.40
2023-04-04T23:41:28.962Z,6.30
2023-04-04T23:43:57.147Z,6.30
2023-04-04T23:46:26.180Z,6.30
2023-04-04T23:48:54.528Z,6.20
2023-04-04T23:51:26.227Z,6.20
2023-04-04T23:53:54.551Z,6.10
2023-04-04T23:56:22.845Z,6.10
2023-04-04T23:58:51.225Z,6.10
